Terminal Aerodrome Forecast
Issued by NWS

Home | Current Version | Previous Version | Text Only | Print | Product List | Glossary On
Versions: 1 2 3 4 5 6 7 8 9 10 11 12 13 14 15 16 17 18 19 20 21 22 23
000
FTUS43 KGRB 051447 AAC
TAFMTW
TAF AMD
KMTW 051447Z 0515/0612 VRB03KT P6SM SCT004 BKN025
      TEMPO 0515/0518 BKN004
     FM051800 19008KT P6SM BKN035
     FM052200 15007KT P6SM SCT040
     FM060400 18004KT 3SM BR SCT150
      TEMPO 0604/0608 1SM BR SCT002
     FM060800 17003KT 2SM BR SCT150
      TEMPO 0608/0612 1/2SM FG BKN002=

USA.gov is the U.S. government's official web portal to all federal, state and local government web resources and services.